createdAt,value
2017-04-03T00:01:12.691Z,32.24
2017-04-03T00:02:12.626Z,32.24
2017-04-03T00:03:12.573Z,32.15
2017-04-03T00:04:12.504Z,32.24
2017-04-03T00:05:12.481Z,32.15
2017-04-03T00:06:12.382Z,32.06
2017-04-03T00:07:12.318Z,32.24
2017-04-03T00:08:12.256Z,32.24
2017-04-03T00:09:12.194Z,31.96
2017-04-03T00:10:12.134Z,32.24
2017-04-03T00:11:12.072Z,31.57
2017-04-03T00:12:12.011Z,32.06
2017-04-03T00:13:11.947Z,32.24
2017-04-03T00:14:11.887Z,32.24
2017-04-03T00:15:11.824Z,32.06
2017-04-03T00:16:11.763Z,32.24
2017-04-03T00:17:11.703Z,32.24
2017-04-03T00:18:11.641Z,31.96
2017-04-03T00:19:11.278Z,32.15
2017-04-03T00:20:11.516Z,32.34
2017-04-03T00:21:11.454Z,32.24
2017-04-03T00:22:11.393Z,31.86
2017-04-03T00:23:11.331Z,32.34
2017-04-03T00:24:11.269Z,32.15
2017-04-03T00:25:11.208Z,32.15
2017-04-03T00:26:11.145Z,31.96
2017-04-03T00:27:11.083Z,32.24
2017-04-03T00:28:10.723Z,32.24
2017-04-03T00:29:10.962Z,32.24
2017-04-03T00:30:10.898Z,32.24
2017-04-03T00:31:10.838Z,31.96
2017-04-03T00:32:10.477Z,32.15
2017-04-03T00:33:10.714Z,32.15
2017-04-03T00:34:10.351Z,31.96
2017-04-03T00:35:10.594Z,32.06
2017-04-03T00:36:10.536Z,32.24
2017-04-03T00:37:10.467Z,32.06
2017-04-03T00:38:10.407Z,32.15
2017-04-03T00:39:10.344Z,32.24
2017-04-03T00:40:10.283Z,31.96
2017-04-03T00:41:10.221Z,31.96
2017-04-03T00:42:10.159Z,32.24
2017-04-03T00:43:10.097Z,32.06
2017-04-03T00:44:10.064Z,32.15
2017-04-03T00:45:09.975Z,32.24
2017-04-03T00:46:09.614Z,31.96
2017-04-03T00:47:09.852Z,31.86
2017-04-03T00:48:09.492Z,32.15
2017-04-03T00:49:09.727Z,32.06
2017-04-03T00:50:09.665Z,32.15
2017-04-03T00:51:09.605Z,31.96
2017-04-03T00:52:09.543Z,31.96
2017-04-03T00:53:09.185Z,31.96
2017-04-03T00:54:09.420Z,31.96
2017-04-03T00:55:09.357Z,31.96
2017-04-03T00:56:08.996Z,31.96
2017-04-03T00:57:09.234Z,31.96
2017-04-03T00:58:08.873Z,31.96
2017-04-03T00:59:09.109Z,31.96
2017-04-03T01:00:09.052Z,31.96
2017-04-03T01:01:08.988Z,31.96
2017-04-03T01:02:08.927Z,31.96
2017-04-03T01:03:08.863Z,32.24
2017-04-03T01:04:08.804Z,32.24
2017-04-03T01:05:08.742Z,32.24
2017-04-03T01:06:08.680Z,32.06
2017-04-03T01:07:08.617Z,31.96
2017-04-03T01:08:08.656Z,31.96
2017-04-03T01:09:08.494Z,31.96
2017-04-03T01:10:08.436Z,31.96
2017-04-03T01:11:08.375Z,31.96
2017-04-03T01:12:08.008Z,31.96
2017-04-03T01:13:08.249Z,32.06
2017-04-03T01:14:08.190Z,31.96
2017-04-03T01:15:08.125Z,32.06
2017-04-03T01:16:08.061Z,31.96
2017-04-03T01:17:08.006Z,31.96
2017-04-03T01:18:07.939Z,32.24
2017-04-03T01:19:07.878Z,31.96
2017-04-03T01:20:07.816Z,31.96
2017-04-03T01:21:07.793Z,32.24
2017-04-03T01:22:07.694Z,32.15
2017-04-03T01:23:07.629Z,31.96
2017-04-03T01:24:07.269Z,31.96
2017-04-03T01:25:07.507Z,32.06
2017-04-03T01:26:07.444Z,31.96
2017-04-03T01:27:07.384Z,31.96
2017-04-03T01:28:07.323Z,31.96
2017-04-03T01:29:07.260Z,32.15
2017-04-03T01:30:07.201Z,31.96
2017-04-03T01:31:07.139Z,32.15
2017-04-03T01:32:07.075Z,32.06
2017-04-03T01:33:07.014Z,32.15
2017-04-03T01:34:06.953Z,31.96
2017-04-03T01:35:06.891Z,32.15
2017-04-03T01:36:06.831Z,32.34
2017-04-03T01:37:06.767Z,31.96
2017-04-03T01:38:06.707Z,31.96
2017-04-03T01:39:06.344Z,32.06
2017-04-03T01:40:06.585Z,31.96
2017-04-03T01:41:06.224Z,31.96
2017-04-03T01:42:06.460Z,32.06
2017-04-03T01:43:06.396Z,31.96
2017-04-03T01:44:06.335Z,32.06
2017-04-03T01:45:06.275Z,32.06
2017-04-03T01:46:06.211Z,32.06
2017-04-03T01:47:06.155Z,32.15
2017-04-03T01:48:06.089Z,31.96
2017-04-03T01:49:06.030Z,32.06
2017-04-03T01:50:05.966Z,32.06
2017-04-03T01:51:05.905Z,32.24
2017-04-03T01:52:05.842Z,31.96
2017-04-03T01:53:05.783Z,32.06
2017-04-03T01:54:05.718Z,32.06
2017-04-03T01:55:05.658Z,32.06
2017-04-03T01:56:05.595Z,31.96
2017-04-03T01:57:05.532Z,31.96
2017-04-03T01:58:05.475Z,32.06
2017-04-03T01:59:05.410Z,32.34
2017-04-03T02:00:05.351Z,32.06
2017-04-03T02:01:05.289Z,31.96
2017-04-03T02:02:05.226Z,31.96
2017-04-03T02:03:05.164Z,31.96
2017-04-03T02:04:05.102Z,32.06
2017-04-03T02:05:05.041Z,31.96
2017-04-03T02:06:04.978Z,32.24
2017-04-03T02:07:04.927Z,31.96
2017-04-03T02:08:04.861Z,31.86
2017-04-03T02:09:04.794Z,32.15
2017-04-03T02:10:04.733Z,31.96
2017-04-03T02:11:04.669Z,31.96
2017-04-03T02:12:04.609Z,32.06
2017-04-03T02:13:04.549Z,32.06
2017-04-03T02:14:04.485Z,32.06
2017-04-03T02:15:04.426Z,31.67
2017-04-03T02:16:04.364Z,32.15
2017-04-03T02:17:04.301Z,31.96
2017-04-03T02:18:04.240Z,31.86
2017-04-03T02:19:04.176Z,32.06
2017-04-03T02:20:04.129Z,32.06
2017-04-03T02:21:04.054Z,32.06
2017-04-03T02:22:03.995Z,32.06
2017-04-03T02:23:03.930Z,32.24
2017-04-03T02:24:03.869Z,32.24
2017-04-03T02:25:03.808Z,32.24
2017-04-03T02:26:03.746Z,32.34
2017-04-03T02:27:03.684Z,32.24
2017-04-03T02:28:03.327Z,31.96
2017-04-03T02:29:03.565Z,31.96
2017-04-03T02:30:03.498Z,32.06
2017-04-03T02:31:03.434Z,31.96
2017-04-03T02:32:03.377Z,32.06
2017-04-03T02:33:03.315Z,31.86
2017-04-03T02:34:03.251Z,32.15
2017-04-03T02:35:03.189Z,32.06
2017-04-03T02:36:03.130Z,31.86
2017-04-03T02:37:03.065Z,32.15
2017-04-03T02:38:03.005Z,31.96
2017-04-03T02:39:02.949Z,31.96
2017-04-03T02:40:02.888Z,31.96
2017-04-03T02:41:02.822Z,31.96
2017-04-03T02:42:02.759Z,32.15
2017-04-03T02:43:02.736Z,31.96
2017-04-03T02:44:02.635Z,31.96
2017-04-03T02:45:02.574Z,32.06
2017-04-03T02:46:02.531Z,31.86
2017-04-03T02:47:02.449Z,31.96
2017-04-03T02:48:02.390Z,31.96
2017-04-03T02:49:02.324Z,31.86
2017-04-03T02:50:02.264Z,31.86
2017-04-03T02:51:02.204Z,31.96
2017-04-03T02:52:02.139Z,32.06
2017-04-03T02:53:01.780Z,31.96
2017-04-03T02:54:02.018Z,31.96
2017-04-03T02:55:01.961Z,32.06
2017-04-03T02:56:01.894Z,32.24
2017-04-03T02:57:01.831Z,31.96
2017-04-03T02:58:01.770Z,31.96
2017-04-03T02:59:01.709Z,31.96
2017-04-03T03:00:01.646Z,31.96
2017-04-03T03:01:01.586Z,32.06
2017-04-03T03:02:01.526Z,31.96
2017-04-03T03:03:01.459Z,32.06
2017-04-03T03:04:01.398Z,32.15
2017-04-03T03:05:01.337Z,31.96
2017-04-03T03:06:01.276Z,32.24
2017-04-03T03:07:01.253Z,31.67
2017-04-03T03:08:01.158Z,31.48
2017-04-03T03:09:01.093Z,31.48
2017-04-03T03:10:01.031Z,31.48
2017-04-03T03:11:00.968Z,31.28
2017-04-03T03:12:00.908Z,31.38
2017-04-03T03:13:00.847Z,31.38
2017-04-03T03:14:00.784Z,31.48
2017-04-03T03:15:00.421Z,31.48
2017-04-03T03:16:00.659Z,31.48
2017-04-03T03:17:00.600Z,31.48
2017-04-03T03:18:00.544Z,31.48
2017-04-03T03:19:00.499Z,31.18
2017-04-03T03:20:00.417Z,31.48
2017-04-03T03:21:00.350Z,31.09
2017-04-03T03:22:00.289Z,30.99
2017-04-03T03:23:00.227Z,31.28
2017-04-03T03:24:00.165Z,31.48
2017-04-03T03:25:00.103Z,31.09
2017-04-03T03:26:00.042Z,31.48
2017-04-03T03:26:59.983Z,31.48
2017-04-03T03:27:59.919Z,31.48
2017-04-03T03:28:59.860Z,31.38
2017-04-03T03:29:59.797Z,31.38
2017-04-03T03:30:59.733Z,31.18
2017-04-03T03:31:59.672Z,31.28
2017-04-03T03:32:59.611Z,31.18
2017-04-03T03:33:59.549Z,31.28
2017-04-03T03:34:59.488Z,31.38
2017-04-03T03:35:59.425Z,31.38
2017-04-03T03:36:59.361Z,31.28
2017-04-03T03:37:59.301Z,31.28
2017-04-03T03:38:59.243Z,31.38
2017-04-03T03:39:58.879Z,31.48
2017-04-03T03:40:59.117Z,31.09
2017-04-03T03:41:59.057Z,31.09
2017-04-03T03:42:58.693Z,31.09
2017-04-03T03:43:58.931Z,31.28
2017-04-03T03:44:58.873Z,31.09
2017-04-03T03:45:58.807Z,31.28
2017-04-03T03:46:58.746Z,31.28
2017-04-03T03:47:58.684Z,31.09
2017-04-03T03:48:58.621Z,31.18
2017-04-03T03:49:58.560Z,31.09
2017-04-03T03:50:58.498Z,30.99
2017-04-03T03:51:58.437Z,31.18
2017-04-03T03:52:58.377Z,31.09
2017-04-03T03:53:58.313Z,31.09
2017-04-03T03:54:58.252Z,31.18
2017-04-03T03:55:58.189Z,31.18
2017-04-03T03:56:58.136Z,31.28
2017-04-03T03:57:58.069Z,31.09
2017-04-03T03:58:58.005Z,31.18
2017-04-03T03:59:57.643Z,30.99
2017-04-03T04:00:57.881Z,31.09
2017-04-03T04:01:57.819Z,30.99
2017-04-03T04:02:57.758Z,30.99
2017-04-03T04:03:57.696Z,30.99
2017-04-03T04:04:57.636Z,30.8
2017-04-03T04:05:57.571Z,30.61
2017-04-03T04:06:57.509Z,30.7
2017-04-03T04:07:57.449Z,30.51
2017-04-03T04:08:57.386Z,30.61
2017-04-03T04:09:57.324Z,30.99
2017-04-03T04:10:57.263Z,30.61
2017-04-03T04:11:57.201Z,30.99
2017-04-03T04:12:57.142Z,30.51
2017-04-03T04:13:57.082Z,31.09
2017-04-03T04:14:57.015Z,31.09
2017-04-03T04:15:56.957Z,30.99
2017-04-03T04:16:56.893Z,30.7
2017-04-03T04:17:56.828Z,30.99
2017-04-03T04:18:56.769Z,30.99
2017-04-03T04:19:56.721Z,30.7
2017-04-03T04:20:56.645Z,30.7
2017-04-03T04:21:56.584Z,31.28
2017-04-03T04:22:56.525Z,30.9
2017-04-03T04:23:56.460Z,30.51
2017-04-03T04:24:56.398Z,30.7
2017-04-03T04:25:56.335Z,30.99
2017-04-03T04:26:56.273Z,30.99
2017-04-03T04:27:56.212Z,30.8
2017-04-03T04:28:56.150Z,30.7
2017-04-03T04:29:56.089Z,30.8
2017-04-03T04:30:56.029Z,30.8
2017-04-03T04:31:55.966Z,30.9
2017-04-03T04:32:55.904Z,30.8
2017-04-03T04:33:55.843Z,30.8
2017-04-03T04:34:55.778Z,30.8
2017-04-03T04:35:55.719Z,30.8
2017-04-03T04:36:55.657Z,30.7
2017-04-03T04:37:55.594Z,30.8
2017-04-03T04:38:55.534Z,30.9
2017-04-03T04:39:55.470Z,30.9
2017-04-03T04:40:55.410Z,30.8
2017-04-03T04:41:55.346Z,30.7
2017-04-03T04:42:55.289Z,30.99
2017-04-03T04:43:55.223Z,30.8
2017-04-03T04:44:55.164Z,30.99
2017-04-03T04:45:55.102Z,30.61
2017-04-03T04:46:55.040Z,30.7
2017-04-03T04:47:54.978Z,30.8
2017-04-03T04:48:54.917Z,30.7
2017-04-03T04:49:54.852Z,30.51
2017-04-03T04:50:54.890Z,30.7
2017-04-03T04:51:54.729Z,30.99
2017-04-03T04:52:54.692Z,30.7
2017-04-03T04:53:54.605Z,30.9
2017-04-03T04:54:54.558Z,30.51
2017-04-03T04:55:54.594Z,30.41
2017-04-03T04:56:54.428Z,30.61
2017-04-03T04:57:54.358Z,30.61
2017-04-03T04:58:54.297Z,30.61
2017-04-03T04:59:54.235Z,30.61
2017-04-03T05:00:54.173Z,30.8
2017-04-03T05:01:54.111Z,30.61
2017-04-03T05:02:54.048Z,30.51
2017-04-03T05:03:53.988Z,30.61
2017-04-03T05:04:53.923Z,30.8
2017-04-03T05:05:53.866Z,30.7
2017-04-03T05:06:53.801Z,30.9
2017-04-03T05:07:53.740Z,30.8
2017-04-03T05:08:53.677Z,30.7
2017-04-03T05:09:53.619Z,30.61
2017-04-03T05:10:53.555Z,30.7
2017-04-03T05:11:53.191Z,30.7
2017-04-03T05:12:53.433Z,30.9
2017-04-03T05:13:53.368Z,30.7
2017-04-03T05:14:53.342Z,30.7
2017-04-03T05:15:53.251Z,30.61
2017-04-03T05:16:53.184Z,30.61
2017-04-03T05:17:53.121Z,30.61
2017-04-03T05:18:53.058Z,30.51
2017-04-03T05:19:52.998Z,30.61
2017-04-03T05:20:52.937Z,30.51
2017-04-03T05:21:52.873Z,30.61
2017-04-03T05:22:52.812Z,30.51
2017-04-03T05:23:52.754Z,30.61
2017-04-03T05:24:52.387Z,30.9
2017-04-03T05:25:52.630Z,30.61
2017-04-03T05:26:52.567Z,30.7
2017-04-03T05:27:52.501Z,30.61
2017-04-03T05:28:52.439Z,30.32
2017-04-03T05:29:52.378Z,30.7
2017-04-03T05:30:52.025Z,30.61
2017-04-03T05:31:51.957Z,30.61
2017-04-03T05:32:52.206Z,30.8
2017-04-03T05:33:52.131Z,30.8
2017-04-03T05:34:52.080Z,30.51
2017-04-03T05:35:52.033Z,30.7
2017-04-03T05:36:51.945Z,30.61
2017-04-03T05:37:51.885Z,30.41
2017-04-03T05:38:51.821Z,30.41
2017-04-03T05:39:51.757Z,30.51
2017-04-03T05:40:51.701Z,30.41
2017-04-03T05:41:51.636Z,30.51
2017-04-03T05:42:51.573Z,30.41
2017-04-03T05:43:51.511Z,30.22
2017-04-03T05:44:51.148Z,30.32
2017-04-03T05:45:51.390Z,30.22
2017-04-03T05:46:51.328Z,30.51
2017-04-03T05:47:51.265Z,30.41
2017-04-03T05:48:51.200Z,30.51
2017-04-03T05:49:51.141Z,30.51
2017-04-03T05:50:51.078Z,30.51
2017-04-03T05:51:51.018Z,30.32
2017-04-03T05:52:50.954Z,30.51
2017-04-03T05:53:50.892Z,30.7
2017-04-03T05:54:50.830Z,30.41
2017-04-03T05:55:50.770Z,30.41
2017-04-03T05:56:50.708Z,30.32
2017-04-03T05:57:50.646Z,30.51
2017-04-03T05:58:50.582Z,30.51
2017-04-03T05:59:50.522Z,30.7
2017-04-03T06:00:50.468Z,30.61
2017-04-03T06:01:50.418Z,30.41
2017-04-03T06:02:50.034Z,30.51
2017-04-03T06:03:50.275Z,30.22
2017-04-03T06:04:50.210Z,30.51
2017-04-03T06:05:50.183Z,30.61
2017-04-03T06:06:50.092Z,30.61
2017-04-03T06:07:50.029Z,30.51
2017-04-03T06:08:49.966Z,30.41
2017-04-03T06:09:49.902Z,30.41
2017-04-03T06:10:49.838Z,30.32
2017-04-03T06:11:49.777Z,30.51
2017-04-03T06:12:49.714Z,30.41
2017-04-03T06:13:49.655Z,30.61
2017-04-03T06:14:49.291Z,30.41
2017-04-03T06:15:49.531Z,30.51
2017-04-03T06:16:49.468Z,30.61
2017-04-03T06:17:49.407Z,30.41
2017-04-03T06:18:49.345Z,30.51
2017-04-03T06:19:48.989Z,30.61
2017-04-03T06:20:49.224Z,30.51
2017-04-03T06:21:49.161Z,30.51
2017-04-03T06:22:49.099Z,30.41
2017-04-03T06:23:49.037Z,30.61
2017-04-03T06:24:48.974Z,30.61
2017-04-03T06:25:48.912Z,30.51
2017-04-03T06:26:48.852Z,30.61
2017-04-03T06:27:48.787Z,30.51
2017-04-03T06:28:48.725Z,30.51
2017-04-03T06:29:48.666Z,30.41
2017-04-03T06:30:48.601Z,30.41
2017-04-03T06:31:48.542Z,30.51
2017-04-03T06:32:48.479Z,30.51
2017-04-03T06:33:48.116Z,30.32
2017-04-03T06:34:48.356Z,30.61
2017-04-03T06:35:48.294Z,30.61
2017-04-03T06:36:48.230Z,30.51
2017-04-03T06:37:48.170Z,30.61
2017-04-03T06:38:48.106Z,30.32
2017-04-03T06:39:48.045Z,30.51
2017-04-03T06:40:47.688Z,30.41
2017-04-03T06:41:47.922Z,30.41
2017-04-03T06:42:47.858Z,30.51
2017-04-03T06:43:47.795Z,30.41
2017-04-03T06:44:47.736Z,30.7
2017-04-03T06:45:47.672Z,30.32
2017-04-03T06:46:47.612Z,30.61
2017-04-03T06:47:47.549Z,30.51
2017-04-03T06:48:47.486Z,30.32
2017-04-03T06:49:47.427Z,30.32
2017-04-03T06:50:47.363Z,30.9
2017-04-03T06:51:47.303Z,31.07
2017-04-03T06:52:47.238Z,30.98
2017-04-03T06:53:47.179Z,31.56
2017-04-03T06:54:47.115Z,31.56
2017-04-03T06:55:47.100Z,31.27
2017-04-03T06:56:46.993Z,31.56
2017-04-03T06:57:46.932Z,31.56
2017-04-03T06:58:46.878Z,31.75
2017-04-03T06:59:46.805Z,31.75
2017-04-03T07:00:46.744Z,31.83
2017-04-03T07:01:46.679Z,31.85
2017-04-03T07:02:46.620Z,31.73
2017-04-03T07:03:46.555Z,31.93
2017-04-03T07:04:46.504Z,32.21
2017-04-03T07:05:46.432Z,32.12
2017-04-03T07:06:46.083Z,32.03
2017-04-03T07:07:46.316Z,32.12
2017-04-03T07:08:46.255Z,32.12
2017-04-03T07:09:46.186Z,32.12
2017-04-03T07:10:46.121Z,31.83
2017-04-03T07:11:46.063Z,31.54
2017-04-03T07:12:46.005Z,32.31
2017-04-03T07:13:45.946Z,32.41
2017-04-03T07:14:45.872Z,32.03
2017-04-03T07:15:46.073Z,32.41
2017-04-03T07:16:45.747Z,32.41
2017-04-03T07:17:45.683Z,32.51
2017-04-03T07:18:45.620Z,32.51
2017-04-03T07:19:45.595Z,32.31
2017-04-03T07:20:45.496Z,32.03
2017-04-03T07:21:45.437Z,31.73
2017-04-03T07:22:45.370Z,31.83
2017-04-03T07:23:45.309Z,31.93
2017-04-03T07:24:45.247Z,32.03
2017-04-03T07:25:45.188Z,31.63
2017-04-03T07:26:45.123Z,31.83
2017-04-03T07:27:45.059Z,32.03
2017-04-03T07:28:44.995Z,31.83
2017-04-03T07:29:44.944Z,32.03
2017-04-03T07:30:44.878Z,32.03
2017-04-03T07:31:44.513Z,32.03
2017-04-03T07:32:44.445Z,31.83
2017-04-03T07:33:44.682Z,31.93
2017-04-03T07:34:44.322Z,32.12
2017-04-03T07:35:44.559Z,31.54
2017-04-03T07:36:44.198Z,31.81
2017-04-03T07:37:44.131Z,31.73
2017-04-03T07:38:44.368Z,31.91
2017-04-03T07:39:44.308Z,31.83
2017-04-03T07:40:44.244Z,31.62
2017-04-03T07:41:44.181Z,32.1
2017-04-03T07:42:44.118Z,32.49
2017-04-03T07:43:44.058Z,32.49
2017-04-03T07:44:43.994Z,32.29
2017-04-03T07:45:43.931Z,31.52
2017-04-03T07:46:44.078Z,31.81
2017-04-03T07:47:43.806Z,31.91
2017-04-03T07:48:43.744Z,32.03
2017-04-03T07:49:43.682Z,31.52
2017-04-03T07:50:43.618Z,32.2
2017-04-03T07:51:43.554Z,32.49
2017-04-03T07:52:43.495Z,32.39
2017-04-03T07:53:43.443Z,32.39
2017-04-03T07:54:43.070Z,32.29
2017-04-03T07:55:43.004Z,32.49
2017-04-03T07:56:42.941Z,32.29
2017-04-03T07:57:43.181Z,32.1
2017-04-03T07:58:42.816Z,32.01
2017-04-03T07:59:43.060Z,31.91
2017-04-03T08:00:42.992Z,31.81
2017-04-03T08:01:42.928Z,31.81
2017-04-03T08:02:42.864Z,31.72
2017-04-03T08:03:42.803Z,31.62
2017-04-03T08:04:42.740Z,32.2
2017-04-03T08:05:42.676Z,31.72
2017-04-03T08:06:42.610Z,31.62
2017-04-03T08:07:42.561Z,31.62
2017-04-03T08:08:42.490Z,31.81
2017-04-03T08:09:42.423Z,31.52
2017-04-03T08:10:42.062Z,32.1
2017-04-03T08:11:42.005Z,31.72
2017-04-03T08:12:42.237Z,32.1
2017-04-03T08:13:42.172Z,32.1
2017-04-03T08:14:41.811Z,32.1
2017-04-03T08:15:41.750Z,32.01
2017-04-03T08:16:41.983Z,31.99
2017-04-03T08:17:41.921Z,31.52
2017-04-03T08:18:41.560Z,32.1
2017-04-03T08:19:41.795Z,32.09
2017-04-03T08:20:41.431Z,32.28
2017-04-03T08:21:41.370Z,31.99
2017-04-03T08:22:41.604Z,32.28
2017-04-03T08:23:41.543Z,32.47
2017-04-03T08:24:41.478Z,32.47
2017-04-03T08:25:41.416Z,32.28
2017-04-03T08:26:41.353Z,32.28
2017-04-03T08:27:41.291Z,32.47
2017-04-03T08:28:41.227Z,32.47
2017-04-03T08:29:41.165Z,32.47
2017-04-03T08:30:41.110Z,32.38
2017-04-03T08:31:41.037Z,32.28
2017-04-03T08:32:40.974Z,32.38
2017-04-03T08:33:40.911Z,32.47
2017-04-03T08:34:40.849Z,32.28
2017-04-03T08:35:40.783Z,32.18
2017-04-03T08:36:40.730Z,32.47
2017-04-03T08:37:40.661Z,32.47
2017-04-03T08:38:40.596Z,32.38
2017-04-03T08:39:40.536Z,32.38
2017-04-03T08:40:40.469Z,32.47
2017-04-03T08:41:40.410Z,32.47
2017-04-03T08:42:40.342Z,32.47
2017-04-03T08:43:40.279Z,32.47
2017-04-03T08:44:40.218Z,32.38
2017-04-03T08:45:40.153Z,32.38
2017-04-03T08:46:40.090Z,32.38
2017-04-03T08:47:40.025Z,32.28
2017-04-03T08:48:39.963Z,32.28
2017-04-03T08:49:39.599Z,32.38
2017-04-03T08:50:39.853Z,32.38
2017-04-03T08:51:39.775Z,32.28
2017-04-03T08:52:39.712Z,32.67
2017-04-03T08:53:39.648Z,32.38
2017-04-03T08:54:39.586Z,32.86
2017-04-03T08:55:39.869Z,32.86
2017-04-03T08:56:39.458Z,32.57
2017-04-03T08:57:39.392Z,32.67
2017-04-03T08:58:39.330Z,32.57
2017-04-03T08:59:39.266Z,32.38
2017-04-03T09:00:39.356Z,32.67
2017-04-03T09:01:39.142Z,32.57
2017-04-03T09:02:39.079Z,32.28
2017-04-03T09:03:39.015Z,32.18
2017-04-03T09:04:38.997Z,32.38
2017-04-03T09:05:38.888Z,32.47
2017-04-03T09:06:38.829Z,32.47
2017-04-03T09:07:38.772Z,32.47
2017-04-03T09:08:38.696Z,32.47
2017-04-03T09:09:38.642Z,32.47
2017-04-03T09:10:38.272Z,32.47
2017-04-03T09:11:38.509Z,32.47
2017-04-03T09:12:38.445Z,32.28
2017-04-03T09:13:38.382Z,32.47
2017-04-03T09:14:38.318Z,32.47
2017-04-03T09:15:38.255Z,32.38
2017-04-03T09:16:37.892Z,32.47
2017-04-03T09:17:38.128Z,32.28
2017-04-03T09:18:38.066Z,32.28
2017-04-03T09:19:38.003Z,32.38
2017-04-03T09:20:37.941Z,32.38
2017-04-03T09:21:37.577Z,32.47
2017-04-03T09:22:37.812Z,32.38
2017-04-03T09:23:37.751Z,32.28
2017-04-03T09:24:37.386Z,32.28
2017-04-03T09:25:37.725Z,32.28
2017-04-03T09:26:37.562Z,32.28
2017-04-03T09:27:37.494Z,32.28
2017-04-03T09:28:37.436Z,32.28
2017-04-03T09:29:37.370Z,32.28
2017-04-03T09:30:37.557Z,32.18
2017-04-03T09:31:36.945Z,32.28
2017-04-03T09:32:36.881Z,32.28
2017-04-03T09:33:37.117Z,31.99
2017-04-03T09:34:37.055Z,31.99
2017-04-03T09:35:36.996Z,31.9
2017-04-03T09:36:36.930Z,31.7
2017-04-03T09:37:36.869Z,32.09
2017-04-03T09:38:36.804Z,31.99
2017-04-03T09:39:36.739Z,31.9
2017-04-03T09:40:36.679Z,31.91
2017-04-03T09:41:36.616Z,31.51
2017-04-03T09:42:36.560Z,31.91
2017-04-03T09:43:36.487Z,32.01
2017-04-03T09:44:36.422Z,32.1
2017-04-03T09:45:36.060Z,32.2
2017-04-03T09:46:36.300Z,32.29
2017-04-03T09:47:36.233Z,32.29
2017-04-03T09:48:36.175Z,32.2
2017-04-03T09:49:36.107Z,32.2
2017-04-03T09:50:36.045Z,32.2
2017-04-03T09:51:35.981Z,31.62
2017-04-03T09:52:35.919Z,31.52
2017-04-03T09:53:35.853Z,32.01
2017-04-03T09:54:35.998Z,32.2
2017-04-03T09:55:35.729Z,32.2
2017-04-03T09:56:35.670Z,31.52
2017-04-03T09:57:35.306Z,31.62
2017-04-03T09:58:35.242Z,32.29
2017-04-03T09:59:35.482Z,32.29
2017-04-03T10:00:35.421Z,32.01
2017-04-03T10:01:35.353Z,31.91
2017-04-03T10:02:35.289Z,32.01
2017-04-03T10:03:35.226Z,32.01
2017-04-03T10:04:35.165Z,32.1
2017-04-03T10:05:35.102Z,32.03
2017-04-03T10:06:34.738Z,31.91
2017-04-03T10:07:34.982Z,32.03
2017-04-03T10:08:34.915Z,32.03
2017-04-03T10:09:34.852Z,32.12
2017-04-03T10:10:34.793Z,32.01
2017-04-03T10:11:34.725Z,32.03
2017-04-03T10:12:34.662Z,32.12
2017-04-03T10:13:34.599Z,32.12
2017-04-03T10:14:34.536Z,31.93
2017-04-03T10:15:34.476Z,31.93
2017-04-03T10:16:34.115Z,32.12
2017-04-03T10:17:34.348Z,32.03
2017-04-03T10:18:34.286Z,31.83
2017-04-03T10:19:34.224Z,32.03
2017-04-03T10:20:34.162Z,31.93
2017-04-03T10:21:34.099Z,32.03
2017-04-03T10:22:33.737Z,31.83
2017-04-03T10:23:33.976Z,31.63
2017-04-03T10:24:33.911Z,31.93
2017-04-03T10:25:33.849Z,31.54
2017-04-03T10:26:33.488Z,32.03
2017-04-03T10:27:33.424Z,31.83
2017-04-03T10:28:33.361Z,32.21
2017-04-03T10:29:33.603Z,31.83
2017-04-03T10:30:33.536Z,32.03
2017-04-03T10:31:33.474Z,32.03
2017-04-03T10:32:33.410Z,31.54
2017-04-03T10:33:33.053Z,32.12
2017-04-03T10:34:33.285Z,32.03
2017-04-03T10:35:33.224Z,31.93
2017-04-03T10:36:33.162Z,32.12
2017-04-03T10:37:33.101Z,31.54
2017-04-03T10:38:33.040Z,31.73
2017-04-03T10:39:32.976Z,32.12
2017-04-03T10:40:32.914Z,31.83
2017-04-03T10:41:32.850Z,31.54
2017-04-03T10:42:32.786Z,32.12
2017-04-03T10:43:32.726Z,32.12
2017-04-03T10:44:32.670Z,32.21
2017-04-03T10:45:32.599Z,32.12
2017-04-03T10:46:32.242Z,32.03
2017-04-03T10:47:32.475Z,31.63
2017-04-03T10:48:32.412Z,32.31
2017-04-03T10:49:32.360Z,31.63
2017-04-03T10:50:32.289Z,31.83
2017-04-03T10:51:32.225Z,31.45
2017-04-03T10:52:32.162Z,31.25
2017-04-03T10:53:32.103Z,31.25
2017-04-03T10:54:32.037Z,31.35
2017-04-03T10:55:31.977Z,31.25
2017-04-03T10:56:31.913Z,31.24
2017-04-03T10:57:31.853Z,31.24
2017-04-03T10:58:31.788Z,31.43
2017-04-03T10:59:31.726Z,31.33
2017-04-03T11:00:31.668Z,31.24
2017-04-03T11:01:31.603Z,31.33
2017-04-03T11:02:31.538Z,31.24
2017-04-03T11:03:31.479Z,31.43
2017-04-03T11:04:31.412Z,31.45
2017-04-03T11:05:31.361Z,31.25
2017-04-03T11:06:31.289Z,31.45
2017-04-03T11:07:31.230Z,31.35
2017-04-03T11:08:31.162Z,31.15
2017-04-03T11:09:31.100Z,31.25
2017-04-03T11:10:31.040Z,31.35
2017-04-03T11:11:31.021Z,30.96
2017-04-03T11:12:30.911Z,30.96
2017-04-03T11:13:30.851Z,31.25
2017-04-03T11:14:30.511Z,31.25
2017-04-03T11:15:30.723Z,31.45
2017-04-03T11:16:30.662Z,31.63
2017-04-03T11:17:30.613Z,31.73
2017-04-03T11:18:30.542Z,31.63
2017-04-03T11:19:30.476Z,31.73
2017-04-03T11:20:30.415Z,31.63
2017-04-03T11:21:30.354Z,31.93
2017-04-03T11:22:30.286Z,31.73
2017-04-03T11:23:30.223Z,31.93
2017-04-03T11:24:30.201Z,32.21
2017-04-03T11:25:30.099Z,32.03
2017-04-03T11:26:30.039Z,32.12
2017-04-03T11:27:29.979Z,31.93
2017-04-03T11:28:29.912Z,32.21
2017-04-03T11:29:29.850Z,32.12
2017-04-03T11:30:29.787Z,32.03
2017-04-03T11:31:29.734Z,31.65
2017-04-03T11:32:29.663Z,31.63
2017-04-03T11:33:29.611Z,32.04
2017-04-03T11:34:29.549Z,32.12
2017-04-03T11:35:29.480Z,31.85
2017-04-03T11:36:29.416Z,31.45
2017-04-03T11:37:29.351Z,31.54
2017-04-03T11:38:29.331Z,30.96
2017-04-03T11:39:29.624Z,31.25
2017-04-03T11:40:29.164Z,31.25
2017-04-03T11:41:29.130Z,31.35
2017-04-03T11:42:29.039Z,30.96
2017-04-03T11:43:28.976Z,31.25
2017-04-03T11:44:28.941Z,30.96
2017-04-03T11:45:28.851Z,31.24
2017-04-03T11:46:28.791Z,31.15
2017-04-03T11:47:28.888Z,31.15
2017-04-03T11:48:28.671Z,31.24
2017-04-03T11:49:28.301Z,31.25
2017-04-03T11:50:28.541Z,31.33
2017-04-03T11:51:28.477Z,31.43
2017-04-03T11:52:28.425Z,31.35
2017-04-03T11:53:28.555Z,31.33
2017-04-03T11:54:28.296Z,31.24
2017-04-03T11:55:28.227Z,31.14
2017-04-03T11:56:28.168Z,31.33
2017-04-03T11:57:28.106Z,31.14
2017-04-03T11:58:28.054Z,31.04
2017-04-03T11:59:27.976Z,31.24
2017-04-03T12:00:27.922Z,31.43
2017-04-03T12:01:27.864Z,31.24
2017-04-03T12:02:27.800Z,31.43
2017-04-03T12:03:27.761Z,31.33
2017-04-03T12:04:27.661Z,31.24
2017-04-03T12:05:27.625Z,31.24
2017-04-03T12:06:27.238Z,31.43
2017-04-03T12:07:27.171Z,31.24
2017-04-03T12:08:27.450Z,31.24
2017-04-03T12:09:27.349Z,31.04
2017-04-03T12:10:26.983Z,31.24
2017-04-03T12:11:27.222Z,31.14
2017-04-03T12:12:27.158Z,31.14
2017-04-03T12:13:27.097Z,31.04
2017-04-03T12:14:27.031Z,31.14
2017-04-03T12:15:26.970Z,31.04
2017-04-03T12:16:26.909Z,31.24
2017-04-03T12:17:26.853Z,31.04
2017-04-03T12:18:26.480Z,30.46
2017-04-03T12:19:26.418Z,30.76
2017-04-03T12:20:26.661Z,30.56
2017-04-03T12:21:26.598Z,30.94
2017-04-03T12:22:26.530Z,30.85
2017-04-03T12:23:26.467Z,30.76
2017-04-03T12:24:26.407Z,30.56
2017-04-03T12:25:26.640Z,30.76
2017-04-03T12:26:26.277Z,30.85
2017-04-03T12:27:25.916Z,30.66
2017-04-03T12:28:26.154Z,30.76
2017-04-03T12:29:26.090Z,30.76
2017-04-03T12:30:26.028Z,31.04
2017-04-03T12:31:25.964Z,30.94
2017-04-03T12:32:25.911Z,30.85
2017-04-03T12:33:25.837Z,30.66
2017-04-03T12:34:25.775Z,30.76
2017-04-03T12:35:25.714Z,30.85
2017-04-03T12:36:25.350Z,30.66
2017-04-03T12:37:25.586Z,30.76
2017-04-03T12:38:25.523Z,30.66
2017-04-03T12:39:25.461Z,30.85
2017-04-03T12:40:25.397Z,30.56
2017-04-03T12:41:25.036Z,30.37
2017-04-03T12:42:25.274Z,30.37
2017-04-03T12:43:25.210Z,30.46
2017-04-03T12:44:25.148Z,30.27
2017-04-03T12:45:25.087Z,30.37
2017-04-03T12:46:25.024Z,30.37
2017-04-03T12:47:24.957Z,30.37
2017-04-03T12:48:24.595Z,30.46
2017-04-03T12:49:24.840Z,30.37
2017-04-03T12:50:24.772Z,30.27
2017-04-03T12:51:24.706Z,30.18
2017-04-03T12:52:24.344Z,29.9
2017-04-03T12:53:24.584Z,29.98
2017-04-03T12:54:24.219Z,29.98